Time;durP1;ratioP1;P1;durP2;ratioP2;P2;SDS_P1;SDS_P2;PMS_P1;PMS_P2;Temp;Humidity;BMP_temperature;BMP_pressure;BME280_temperature;BME280_humidity;BME280_pressure;Samples;Min_cycle;Max_cycle;Signal;HPM_P1;HPM_P2
2022/11/12 00:00:27;;;;;;;14.85;9.88;;;8.00;99.90;;;;;;4977351;28;20116;-63
2022/11/12 00:02:52;;;;;;;17.27;10.95;;;8.00;99.90;;;;;;4970473;28;20129;-63
2022/11/12 00:05:18;;;;;;;18.63;10.75;;;8.00;99.90;;;;;;4972144;28;20042;-63
2022/11/12 00:07:44;;;;;;;21.55;11.43;;;8.00;99.90;;;;;;4976076;28;20043;-64
2022/11/12 00:10:09;;;;;;;17.70;10.98;;;8.00;99.90;;;;;;4973284;28;20085;-63
2022/11/12 00:12:35;;;;;;;16.63;10.82;;;7.90;99.90;;;;;;4982980;28;20035;-63
2022/11/12 00:15:01;;;;;;;17.48;11.38;;;8.00;99.90;;;;;;4982229;28;20022;-63
2022/11/12 00:17:26;;;;;;;16.92;10.65;;;8.00;99.90;;;;;;4975233;28;20073;-63
2022/11/12 00:19:52;;;;;;;16.45;11.18;;;8.00;99.90;;;;;;4989083;28;20113;-63
2022/11/12 00:22:19;;;;;;;15.40;11.00;;;8.00;99.90;;;;;;4976460;28;20397;-64
2022/11/12 00:24:44;;;;;;;19.50;11.02;;;8.00;99.90;;;;;;4972385;28;20045;-64
2022/11/12 00:27:10;;;;;;;15.25;10.48;;;8.00;99.90;;;;;;4971651;28;20043;-63
2022/11/12 00:29:37;;;;;;;14.50;10.40;;;8.00;99.90;;;;;;4982770;28;20637;-63
2022/11/12 00:32:06;;;;;;;15.63;9.98;;;7.90;99.90;;;;;;4981238;28;20039;-63
2022/11/12 00:34:33;;;;;;;15.98;10.43;;;7.90;99.90;;;;;;4973428;28;20030;-63
2022/11/12 00:36:59;;;;;;;17.73;10.60;;;7.90;99.90;;;;;;4973094;28;20042;-63
2022/11/12 00:39:24;;;;;;;16.55;10.38;;;7.80;99.90;;;;;;4970735;28;20035;-63
2022/11/12 00:41:50;;;;;;;19.88;10.52;;;7.80;99.90;;;;;;4973310;28;20038;-63
2022/11/12 00:44:16;;;;;;;15.98;10.90;;;7.90;99.90;;;;;;4976970;28;20409;-63
2022/11/12 00:46:41;;;;;;;18.20;11.00;;;7.90;99.90;;;;;;4977394;28;20041;-63
2022/11/12 00:49:07;;;;;;;17.05;10.80;;;7.90;99.90;;;;;;4987207;28;20436;-64
2022/11/12 00:51:33;;;;;;;20.52;11.80;;;7.90;99.90;;;;;;4974393;28;20064;-62
2022/11/12 00:53:59;;;;;;;18.13;11.27;;;7.90;99.90;;;;;;4973265;28;20031;-63
2022/11/12 00:56:25;;;;;;;19.75;11.52;;;7.90;99.90;;;;;;4983229;28;20400;-62
2022/11/12 00:58:51;;;;;;;16.67;10.95;;;7.90;99.90;;;;;;4979064;28;20043;-63
2022/11/12 01:01:16;;;;;;;17.40;10.45;;;7.90;99.90;;;;;;4984497;28;20038;-63
2022/11/12 01:03:42;;;;;;;20.73;10.93;;;7.90;99.90;;;;;;4971421;28;20065;-63
2022/11/12 01:06:14;;;;;;;15.52;10.85;;;7.80;99.90;;;;;;4972746;28;20038;-63
2022/11/12 01:08:40;;;;;;;18.00;11.30;;;7.80;99.90;;;;;;4973998;28;20290;-64
2022/11/12 01:11:19;;;;;;;16.27;10.48;;;7.80;99.90;;;;;;4981763;28;20044;-63
2022/11/12 01:13:46;;;;;;;18.35;11.45;;;7.80;99.90;;;;;;4971520;28;20409;-62
2022/11/12 01:16:15;;;;;;;19.70;11.63;;;7.80;99.90;;;;;;4980933;28;20039;-63
2022/11/12 01:18:42;;;;;;;18.42;10.98;;;7.80;99.90;;;;;;4985070;28;20042;-62
2022/11/12 01:21:08;;;;;;;18.67;11.45;;;7.80;99.90;;;;;;4977736;28;20030;-64
2022/11/12 01:23:36;;;;;;;18.02;11.00;;;7.80;99.90;;;;;;4974465;28;20444;-63
2022/11/12 01:26:12;;;;;;;15.70;10.80;;;7.80;99.90;;;;;;4985735;28;20046;-62
2022/11/12 01:28:38;;;;;;;18.83;11.27;;;7.80;99.90;;;;;;4971457;28;20031;-62
2022/11/12 01:31:34;;;;;;;16.13;11.15;;;7.80;99.90;;;;;;4985186;28;20085;-62
2022/11/12 01:34:03;;;;;;;16.75;11.32;;;7.80;99.90;;;;;;4976536;28;20041;-63
2022/11/12 01:36:32;;;;;;;16.10;11.45;;;7.80;99.90;;;;;;4965361;28;20405;-63
2022/11/12 01:38:58;;;;;;;20.75;11.55;;;7.80;99.90;;;;;;4965205;28;20045;-63
2022/11/12 01:41:27;;;;;;;20.40;11.75;;;7.80;99.90;;;;;;4980463;28;20039;-63
2022/11/12 01:44:29;;;;;;;15.10;10.98;;;7.80;99.90;;;;;;4978046;28;20046;-63
2022/11/12 01:47:16;;;;;;;16.98;10.68;;;7.80;99.90;;;;;;4929159;28;20046;-63
2022/11/12 01:49:54;;;;;;;20.58;11.40;;;7.80;99.90;;;;;;4972094;28;20050;-63
2022/11/12 01:52:23;;;;;;;17.58;11.60;;;7.80;99.90;;;;;;4966901;28;20042;-63
2022/11/12 01:54:52;;;;;;;17.15;11.20;;;7.80;99.90;;;;;;4971530;28;20059;-63
2022/11/12 01:57:24;;;;;;;15.60;11.00;;;7.80;99.90;;;;;;4971726;28;20042;-63
2022/11/12 01:59:53;;;;;;;16.65;10.68;;;7.80;99.90;;;;;;4977669;28;20030;-63
2022/11/12 02:02:18;;;;;;;19.50;11.27;;;7.70;99.90;;;;;;4984665;28;20039;-63
2022/11/12 02:04:45;;;;;;;16.90;10.98;;;7.70;99.90;;;;;;4970571;28;20065;-63
2022/11/12 02:07:11;;;;;;;19.23;11.30;;;7.70;99.90;;;;;;4974701;28;20050;-63
2022/11/12 02:09:37;;;;;;;18.40;11.40;;;7.60;99.90;;;;;;4982134;28;20043;-62
2022/11/12 02:12:03;;;;;;;17.80;11.63;;;7.60;99.90;;;;;;4971347;28;20130;-63
2022/11/12 02:14:29;;;;;;;19.13;11.80;;;7.60;99.90;;;;;;4971416;28;20035;-62
2022/11/12 02:16:55;;;;;;;18.05;11.00;;;7.60;99.90;;;;;;4971453;28;20042;-63
2022/11/12 02:19:21;;;;;;;20.58;11.32;;;7.60;99.90;;;;;;4971286;28;20123;-63
2022/11/12 02:21:46;;;;;;;15.20;10.60;;;7.60;99.90;;;;;;4973761;28;20440;-63
2022/11/12 02:24:12;;;;;;;18.45;10.73;;;7.50;99.90;;;;;;4980516;28;20034;-63
2022/11/12 02:26:51;;;;;;;17.40;10.98;;;7.50;99.90;;;;;;4971402;28;20039;-63
2022/11/12 02:29:17;;;;;;;17.45;11.05;;;7.50;99.90;;;;;;4969868;28;20050;-63
2022/11/12 02:31:42;;;;;;;18.73;10.75;;;7.50;99.90;;;;;;4972775;28;20050;-63
2022/11/12 02:34:08;;;;;;;17.42;10.98;;;7.40;99.90;;;;;;4970290;28;20504;-63
2022/11/12 02:36:34;;;;;;;18.42;10.65;;;7.40;99.90;;;;;;4972495;28;20034;-63
2022/11/12 02:38:59;;;;;;;16.30;10.50;;;7.40;99.90;;;;;;4969045;28;20092;-63
2022/11/12 02:41:25;;;;;;;19.40;10.95;;;7.40;99.90;;;;;;4970516;28;20131;-63
2022/11/12 02:43:51;;;;;;;16.50;10.73;;;7.30;99.90;;;;;;4975064;28;20031;-62
2022/11/12 02:46:16;;;;;;;16.08;10.15;;;7.30;99.90;;;;;;4975692;28;20063;-62
2022/11/12 02:48:43;;;;;;;15.00;10.63;;;7.30;99.90;;;;;;4976871;28;20070;-63
2022/11/12 02:51:09;;;;;;;19.08;11.35;;;7.30;99.90;;;;;;4979164;28;20042;-63
2022/11/12 02:53:35;;;;;;;16.67;10.98;;;7.20;99.90;;;;;;4986020;28;20058;-63
2022/11/12 02:56:00;;;;;;;17.30;11.63;;;7.20;99.90;;;;;;4974947;28;20070;-62
2022/11/12 02:58:27;;;;;;;16.67;11.57;;;7.20;99.90;;;;;;4974209;28;20035;-62
2022/11/12 03:00:54;;;;;;;19.52;11.15;;;7.20;99.90;;;;;;4974901;28;20042;-62
2022/11/12 03:03:21;;;;;;;19.33;11.40;;;7.20;99.90;;;;;;4973826;28;20042;-62
2022/11/12 03:05:54;;;;;;;18.65;12.40;;;7.20;99.90;;;;;;4980068;28;20054;-62
2022/11/12 03:08:20;;;;;;;17.75;11.50;;;7.30;99.90;;;;;;4988319;28;20505;-62
2022/11/12 03:10:45;;;;;;;22.92;12.10;;;7.30;99.90;;;;;;4958067;28;20300;-63
2022/11/12 03:13:11;;;;;;;21.17;12.10;;;7.30;99.90;;;;;;4974232;28;20045;-62
2022/11/12 03:15:37;;;;;;;21.70;11.85;;;7.30;99.90;;;;;;4975500;28;20078;-62
2022/11/12 03:18:02;;;;;;;16.30;11.20;;;7.30;99.90;;;;;;4978379;28;20031;-62
2022/11/12 03:20:29;;;;;;;19.52;11.32;;;7.30;99.90;;;;;;4974798;28;20041;-62
2022/11/12 03:23:06;;;;;;;17.33;10.23;;;7.30;99.90;;;;;;4978960;28;20117;-63
2022/11/12 03:25:32;;;;;;;14.35;8.90;;;7.30;99.90;;;;;;4985902;28;20034;-63
2022/11/12 03:28:00;;;;;;;12.30;7.97;;;7.30;99.90;;;;;;4957020;28;20042;-62
2022/11/12 03:30:32;;;;;;;12.73;8.35;;;7.30;99.90;;;;;;4983836;28;20051;-65
2022/11/12 03:32:57;;;;;;;11.93;8.02;;;7.30;99.90;;;;;;4981612;28;20552;-62
2022/11/12 03:35:23;;;;;;;14.18;9.20;;;7.20;99.90;;;;;;4976079;28;20138;-62
2022/11/12 03:37:49;;;;;;;13.68;9.23;;;7.20;99.90;;;;;;4985080;28;20023;-62
2022/11/12 03:40:16;;;;;;;14.65;9.10;;;7.10;99.90;;;;;;4973516;28;20065;-62
2022/11/12 03:42:49;;;;;;;13.10;9.60;;;7.10;99.90;;;;;;4974135;28;20042;-62
2022/11/12 03:45:19;;;;;;;12.95;8.93;;;7.00;99.90;;;;;;4974131;28;20086;-62
2022/11/12 03:47:50;;;;;;;14.40;8.43;;;7.00;99.90;;;;;;4969055;28;20109;-62
2022/11/12 03:50:17;;;;;;;13.10;7.82;;;7.00;99.90;;;;;;4983993;28;20046;-62
2022/11/12 03:52:47;;;;;;;14.48;7.65;;;7.00;99.90;;;;;;4971748;28;20039;-62
2022/11/12 03:55:19;;;;;;;12.43;8.75;;;7.00;99.90;;;;;;4973415;28;20560;-62
2022/11/12 03:57:48;;;;;;;12.75;8.40;;;6.90;99.90;;;;;;4972611;28;20038;-62
2022/11/12 04:00:14;;;;;;;11.90;8.63;;;6.90;99.90;;;;;;4972337;28;20062;-62
2022/11/12 04:02:40;;;;;;;16.40;9.55;;;6.90;99.90;;;;;;4977261;28;20046;-62
2022/11/12 04:10:43;;;;;;;17.20;9.60;;;6.90;99.90;;;;;;4973220;28;20046;-62
2022/11/12 04:13:27;;;;;;;12.60;8.10;;;6.90;99.90;;;;;;4972226;28;20382;-62
2022/11/12 04:21:49;;;;;;;10.10;7.07;;;6.80;99.90;;;;;;4972175;28;20117;-62
2022/11/12 04:27:04;;;;;;;12.30;7.07;;;6.70;99.90;;;;;;4974603;28;20043;-62
2022/11/12 04:32:15;;;;;;;16.20;8.02;;;6.60;99.90;;;;;;4979926;28;20493;-62
2022/11/12 04:34:40;;;;;;;11.80;8.30;;;6.60;99.90;;;;;;4981578;28;20039;-62
2022/11/12 04:37:07;;;;;;;14.18;8.52;;;6.60;99.90;;;;;;4973503;28;20034;-62
2022/11/12 04:39:32;;;;;;;16.63;9.30;;;6.50;99.90;;;;;;4971333;28;20113;-62
2022/11/12 04:44:58;;;;;;;14.18;8.70;;;6.50;99.90;;;;;;4981132;28;20047;-62
2022/11/12 04:47:25;;;;;;;10.43;6.88;;;6.50;99.90;;;;;;4990488;28;20121;-62
2022/11/12 04:49:51;;;;;;;10.38;6.43;;;6.50;99.90;;;;;;4973833;28;20035;-62
2022/11/12 04:52:17;;;;;;;9.55;6.53;;;6.40;99.90;;;;;;4972666;28;20493;-62
2022/11/12 04:54:42;;;;;;;9.15;6.43;;;6.30;99.90;;;;;;4972837;28;20114;-62
2022/11/12 04:57:08;;;;;;;10.07;7.13;;;6.30;99.90;;;;;;4972518;28;20123;-62
2022/11/12 04:59:34;;;;;;;11.70;8.15;;;6.20;99.90;;;;;;4972298;28;20031;-62
2022/11/12 05:01:59;;;;;;;12.00;7.57;;;6.20;99.90;;;;;;4982289;28;20045;-62
2022/11/12 05:04:28;;;;;;;12.05;7.90;;;6.20;99.90;;;;;;4978334;28;20047;-62
2022/11/12 05:06:57;;;;;;;10.88;7.40;;;6.20;99.90;;;;;;4987414;28;20042;-62
2022/11/12 05:09:25;;;;;;;11.07;7.82;;;6.20;99.90;;;;;;4975179;28;20039;-62
2022/11/12 05:11:52;;;;;;;11.52;7.88;;;6.20;99.90;;;;;;4987639;28;20596;-62
2022/11/12 05:14:18;;;;;;;9.10;6.88;;;6.10;99.90;;;;;;4971886;28;20046;-62
2022/11/12 05:16:44;;;;;;;12.18;7.63;;;6.10;99.90;;;;;;4990286;28;20477;-62
2022/11/12 05:19:09;;;;;;;11.23;7.47;;;6.10;99.90;;;;;;4970993;28;20397;-62
2022/11/12 05:24:19;;;;;;;14.93;8.35;;;6.10;99.90;;;;;;4979239;28;20078;-62
2022/11/12 05:26:45;;;;;;;13.98;8.48;;;6.00;99.90;;;;;;4980042;28;20078;-62
2022/11/12 05:29:10;;;;;;;12.80;8.15;;;6.10;99.90;;;;;;4969416;28;20397;-62
2022/11/12 05:31:36;;;;;;;11.02;7.88;;;6.10;99.90;;;;;;4980421;28;20031;-62
2022/11/12 05:34:02;;;;;;;12.70;7.88;;;6.00;99.90;;;;;;4983308;28;20448;-62
2022/11/12 05:36:27;;;;;;;11.65;7.43;;;6.00;99.90;;;;;;4983116;28;20413;-62
2022/11/12 05:38:53;;;;;;;11.45;7.50;;;6.10;99.90;;;;;;4970052;28;20070;-62
2022/11/12 05:41:19;;;;;;;13.00;7.03;;;6.10;99.90;;;;;;4986256;28;20125;-62
2022/11/12 05:43:44;;;;;;;10.07;7.18;;;6.10;99.90;;;;;;4979771;28;20039;-62
2022/11/12 05:46:10;;;;;;;9.40;6.82;;;6.00;99.90;;;;;;4968985;28;20038;-62
2022/11/12 05:48:36;;;;;;;10.25;6.55;;;6.00;99.90;;;;;;4971501;28;20041;-62
2022/11/12 05:51:02;;;;;;;9.40;6.60;;;6.00;99.90;;;;;;4971652;28;20066;-62
2022/11/12 05:53:27;;;;;;;8.38;5.88;;;6.00;99.90;;;;;;4970386;28;20053;-62
2022/11/12 05:55:53;;;;;;;9.35;5.93;;;6.00;99.90;;;;;;4971804;28;20393;-62
2022/11/12 05:58:18;;;;;;;9.27;5.93;;;6.00;99.90;;;;;;4972013;28;20042;-62
2022/11/12 06:00:44;;;;;;;8.57;6.03;;;5.90;99.90;;;;;;4979785;28;20058;-62
2022/11/12 06:03:11;;;;;;;8.65;5.90;;;5.90;99.90;;;;;;4977321;28;20043;-62
2022/11/12 06:05:37;;;;;;;10.60;5.90;;;5.90;99.90;;;;;;4964656;28;20043;-62
2022/11/12 06:08:04;;;;;;;7.70;5.50;;;5.80;99.90;;;;;;4971667;28;20094;-62
2022/11/12 06:10:31;;;;;;;8.05;5.47;;;5.80;99.90;;;;;;4972114;28;20038;-62
2022/11/12 06:12:57;;;;;;;7.88;5.68;;;5.80;99.90;;;;;;4981313;28;20039;-62
2022/11/12 06:15:25;;;;;;;9.23;5.90;;;5.70;99.90;;;;;;4969614;28;20050;-62
2022/11/12 06:17:55;;;;;;;8.95;5.15;;;5.70;99.90;;;;;;4978067;28;20043;-62
2022/11/12 06:20:21;;;;;;;8.52;5.80;;;5.60;99.90;;;;;;4986622;28;20121;-62
2022/11/12 06:22:47;;;;;;;8.07;5.85;;;5.60;99.90;;;;;;4981464;28;20118;-62
2022/11/12 06:25:13;;;;;;;9.32;6.22;;;5.60;99.90;;;;;;4974509;28;20158;-62
2022/11/12 06:27:39;;;;;;;9.65;5.88;;;5.60;99.90;;;;;;4977795;28;20087;-62
2022/11/12 06:30:06;;;;;;;10.70;5.82;;;5.60;99.90;;;;;;4991164;28;20501;-62
2022/11/12 06:32:31;;;;;;;8.68;5.75;;;5.60;99.90;;;;;;4979219;28;20485;-62
2022/11/12 06:34:57;;;;;;;8.85;6.25;;;5.60;99.90;;;;;;4988683;28;20042;-62
2022/11/12 06:37:23;;;;;;;9.48;6.88;;;5.60;99.90;;;;;;4979282;28;20042;-62
2022/11/12 06:39:48;;;;;;;9.48;5.85;;;5.60;99.90;;;;;;4974986;28;20034;-62
2022/11/12 06:42:14;;;;;;;8.93;5.97;;;5.60;99.90;;;;;;4983366;28;20042;-62
2022/11/12 06:44:40;;;;;;;9.05;6.22;;;5.60;99.90;;;;;;4970879;28;20058;-62
2022/11/12 06:47:06;;;;;;;9.27;6.05;;;5.60;99.90;;;;;;4978733;28;20055;-62
2022/11/12 06:49:32;;;;;;;9.90;6.07;;;5.50;99.90;;;;;;4976939;28;20074;-62
2022/11/12 06:51:57;;;;;;;9.52;5.53;;;5.50;99.90;;;;;;4973675;28;20469;-62
2022/11/12 06:54:23;;;;;;;7.50;5.55;;;5.40;99.90;;;;;;4973680;28;20098;-62
2022/11/12 06:56:48;;;;;;;9.50;5.97;;;5.40;99.90;;;;;;4976851;28;20031;-62
2022/11/12 06:59:14;;;;;;;8.13;5.72;;;5.40;99.90;;;;;;4982268;28;20085;-63
2022/11/12 07:01:40;;;;;;;8.63;5.65;;;5.40;99.90;;;;;;4974997;28;20041;-62
2022/11/12 07:04:05;;;;;;;10.05;6.15;;;5.30;99.90;;;;;;4974013;28;20370;-62
2022/11/12 07:06:32;;;;;;;11.88;6.07;;;5.40;99.90;;;;;;4974832;28;20031;-62
2022/11/12 07:08:59;;;;;;;7.78;5.78;;;5.40;99.90;;;;;;4978348;28;20033;-62
2022/11/12 07:11:24;;;;;;;8.85;5.53;;;5.40;99.90;;;;;;4984505;28;20038;-62
2022/11/12 07:13:50;;;;;;;9.98;5.40;;;5.40;99.90;;;;;;4969365;28;20046;-62
2022/11/12 07:16:17;;;;;;;8.35;5.88;;;5.40;99.90;;;;;;4971763;28;20039;-63
2022/11/12 07:18:44;;;;;;;7.47;5.25;;;5.30;99.90;;;;;;4983580;28;20034;-62
2022/11/12 07:21:12;;;;;;;9.10;5.38;;;5.30;99.90;;;;;;4981639;28;20049;-63
2022/11/12 07:23:38;;;;;;;8.43;5.60;;;5.30;99.90;;;;;;4961646;28;20043;-63
2022/11/12 07:26:13;;;;;;;7.68;5.65;;;5.30;99.90;;;;;;4966721;28;20041;-63
2022/11/12 07:28:39;;;;;;;8.25;5.50;;;5.30;99.90;;;;;;4985645;28;20030;-62
2022/11/12 07:31:08;;;;;;;7.97;6.03;;;5.30;99.90;;;;;;4974389;28;20086;-62
2022/11/12 07:33:34;;;;;;;10.38;6.43;;;5.20;99.90;;;;;;4974208;28;20461;-62
2022/11/12 07:36:03;;;;;;;10.65;6.72;;;5.20;99.90;;;;;;4974493;28;20034;-62
2022/11/12 07:38:30;;;;;;;8.55;6.00;;;5.20;99.90;;;;;;4972217;28;20437;-62
2022/11/12 07:41:09;;;;;;;10.43;6.95;;;5.20;99.90;;;;;;4981259;28;20034;-62
2022/11/12 07:43:36;;;;;;;9.30;6.32;;;5.20;99.90;;;;;;4975228;28;20046;-62
2022/11/12 07:46:07;;;;;;;9.82;6.10;;;5.20;99.90;;;;;;4980482;28;20050;-63
2022/11/12 07:48:33;;;;;;;9.88;6.25;;;5.20;99.90;;;;;;4973942;28;20067;-64
2022/11/12 07:51:04;;;;;;;8.85;5.93;;;5.30;99.90;;;;;;4959203;28;20069;-62
2022/11/12 07:53:30;;;;;;;8.73;6.18;;;5.30;99.90;;;;;;4967680;28;20039;-62
2022/11/12 07:55:59;;;;;;;7.50;5.72;;;5.30;99.90;;;;;;4966961;28;20240;-63
2022/11/12 07:58:25;;;;;;;8.07;5.82;;;5.30;99.90;;;;;;4962250;28;20034;-63
2022/11/12 08:00:52;;;;;;;9.77;6.15;;;5.30;99.90;;;;;;4958156;28;20042;-63
2022/11/12 08:03:18;;;;;;;10.75;7.00;;;5.30;99.90;;;;;;4940122;28;20050;-63
2022/11/12 08:05:44;;;;;;;8.32;6.28;;;5.30;99.90;;;;;;4967920;28;20401;-63
2022/11/12 08:08:10;;;;;;;8.85;6.05;;;5.30;99.90;;;;;;4967749;28;20039;-63
2022/11/12 08:10:36;;;;;;;8.95;7.07;;;5.30;99.90;;;;;;4960188;28;20027;-63
2022/11/12 08:13:02;;;;;;;10.00;6.57;;;5.30;99.90;;;;;;4962572;28;20046;-63
2022/11/12 08:15:27;;;;;;;8.10;6.57;;;5.40;99.90;;;;;;4966454;28;20082;-63
2022/11/12 08:17:53;;;;;;;8.90;6.10;;;5.40;99.90;;;;;;4975976;28;20477;-63
2022/11/12 08:20:18;;;;;;;9.15;5.80;;;5.40;99.90;;;;;;4972753;28;20533;-63
2022/11/12 08:22:44;;;;;;;8.35;5.63;;;5.40;99.90;;;;;;4971266;28;20070;-63
2022/11/12 08:25:10;;;;;;;7.97;6.05;;;5.40;99.90;;;;;;4970302;28;20130;-63
2022/11/12 08:27:35;;;;;;;8.23;5.75;;;5.50;99.90;;;;;;4970493;28;20047;-63
2022/11/12 08:30:02;;;;;;;6.88;5.30;;;5.50;99.90;;;;;;4969296;28;20038;-63
2022/11/12 08:32:28;;;;;;;8.20;5.85;;;5.60;99.90;;;;;;4969464;28;20060;-63
2022/11/12 08:34:53;;;;;;;9.20;5.65;;;5.50;99.90;;;;;;4964028;28;20038;-63
2022/11/12 08:37:19;;;;;;;9.75;6.78;;;5.60;99.90;;;;;;4962665;28;20093;-63
2022/11/12 08:39:44;;;;;;;14.85;10.85;;;5.60;99.90;;;;;;4970239;28;20043;-63
2022/11/12 08:42:10;;;;;;;16.23;11.10;;;5.70;99.90;;;;;;4968660;28;20043;-63
2022/11/12 08:44:36;;;;;;;14.35;10.30;;;5.70;99.90;;;;;;4969647;28;20126;-63
2022/11/12 08:47:01;;;;;;;15.60;10.63;;;5.70;99.90;;;;;;4971763;28;20497;-63
2022/11/12 08:49:28;;;;;;;15.35;9.95;;;5.70;99.90;;;;;;4960581;28;20104;-63
2022/11/12 08:51:54;;;;;;;13.77;9.98;;;5.80;99.90;;;;;;4985164;28;20038;-63
2022/11/12 08:54:20;;;;;;;12.88;9.15;;;5.80;99.90;;;;;;4978122;28;20039;-63
2022/11/12 08:56:46;;;;;;;15.20;9.73;;;5.90;99.90;;;;;;4974734;28;20073;-63
2022/11/12 08:59:11;;;;;;;11.95;8.88;;;6.00;99.90;;;;;;4974398;28;20034;-63
2022/11/12 09:01:37;;;;;;;18.80;9.57;;;6.00;99.90;;;;;;4969994;28;20093;-63
2022/11/12 09:04:03;;;;;;;14.23;8.75;;;6.10;99.90;;;;;;4977673;28;20059;-63
2022/11/12 09:06:28;;;;;;;14.73;9.55;;;6.10;99.90;;;;;;4976458;28;20432;-63
2022/11/12 09:08:54;;;;;;;18.40;8.77;;;6.20;99.90;;;;;;4970411;28;20165;-63
2022/11/12 09:11:20;;;;;;;14.35;9.18;;;6.30;99.90;;;;;;4971748;28;20031;-63
2022/11/12 09:13:45;;;;;;;17.05;8.98;;;6.30;99.90;;;;;;4982920;28;20046;-63
2022/11/12 09:16:11;;;;;;;13.00;9.10;;;6.40;99.90;;;;;;4979560;28;20035;-63
2022/11/12 09:18:37;;;;;;;15.32;9.30;;;6.40;99.90;;;;;;4975104;28;20035;-63
2022/11/12 09:21:09;;;;;;;15.95;9.20;;;6.40;99.90;;;;;;4971725;28;20113;-63
2022/11/12 09:23:35;;;;;;;;;;;6.50;99.90;;;;;;4971841;28;20125;-63
2022/11/12 09:26:01;;;;;;;14.82;10.30;;;6.60;99.90;;;;;;4971254;28;20665;-63
2022/11/12 09:28:27;;;;;;;13.88;9.65;;;6.60;99.90;;;;;;4968652;28;20130;-63
2022/11/12 09:30:54;;;;;;;13.38;10.10;;;6.60;99.90;;;;;;4974381;28;20121;-63
2022/11/12 09:33:31;;;;;;;18.50;11.70;;;6.70;99.90;;;;;;4972892;28;20045;-63
2022/11/12 09:35:59;;;;;;;19.17;12.13;;;6.70;99.90;;;;;;4955154;28;20053;-63
2022/11/12 09:38:25;;;;;;;17.52;11.15;;;6.80;99.90;;;;;;4974084;28;20042;-63
2022/11/12 09:40:51;;;;;;;18.20;11.95;;;6.90;99.90;;;;;;4975739;28;20038;-63
2022/11/12 09:43:26;;;;;;;23.48;11.65;;;7.10;99.90;;;;;;4972502;28;20051;-63
2022/11/12 09:45:54;;;;;;;16.65;10.75;;;6.90;99.90;;;;;;4982392;28;20042;-63
2022/11/12 09:48:25;;;;;;;16.67;11.20;;;7.00;99.90;;;;;;4969038;28;20379;-63
2022/11/12 09:51:03;;;;;;;16.63;11.57;;;7.00;99.90;;;;;;4969976;28;20046;-63
2022/11/12 09:53:51;;;;;;;22.17;13.90;;;7.00;99.90;;;;;;4971702;28;20113;-63
2022/11/12 09:56:20;;;;;;;23.73;13.85;;;7.10;99.90;;;;;;4971446;28;20044;-63
2022/11/12 09:58:46;;;;;;;21.58;14.00;;;7.20;99.90;;;;;;4975822;28;20038;-63
2022/11/12 10:01:21;;;;;;;20.65;13.27;;;7.20;99.90;;;;;;4984761;28;20026;-63
2022/11/12 10:04:04;;;;;;;23.30;13.95;;;7.30;99.90;;;;;;4982897;28;20050;-63
2022/11/12 10:06:41;;;;;;;21.60;14.15;;;7.30;99.90;;;;;;4988652;28;20042;-63
2022/11/12 10:09:21;;;;;;;19.35;14.27;;;7.50;99.90;;;;;;4978641;28;20038;-63
2022/11/12 10:18:04;;;;;;;19.92;14.55;;;7.60;99.90;;;;;;4970643;28;20046;-63
2022/11/12 10:20:42;;;;;;;21.25;13.82;;;7.70;99.90;;;;;;4971645;28;20043;-63
2022/11/12 10:23:23;;;;;;;26.00;14.48;;;7.80;99.90;;;;;;4971924;28;20075;-63
2022/11/12 10:25:51;;;;;;;22.92;14.50;;;7.90;99.90;;;;;;4974530;28;20084;-63
2022/11/12 10:28:32;;;;;;;21.77;14.57;;;8.00;99.90;;;;;;4973550;28;20054;-63
2022/11/12 10:31:04;;;;;;;22.17;13.93;;;8.10;99.90;;;;;;4965596;28;20434;-63
2022/11/12 10:33:30;;;;;;;23.55;14.15;;;8.10;99.90;;;;;;4971808;28;20444;-63
2022/11/12 10:36:25;;;;;;;20.42;14.07;;;8.20;99.90;;;;;;4971754;28;20043;-63
2022/11/12 10:38:53;;;;;;;20.70;14.25;;;8.30;99.90;;;;;;4963191;28;20101;-63
2022/11/12 10:41:23;;;;;;;23.48;14.65;;;8.40;99.90;;;;;;4981784;28;20490;-63
2022/11/12 10:44:04;;;;;;;19.60;14.32;;;8.50;99.90;;;;;;4971932;28;20035;-63
2022/11/12 10:46:36;;;;;;;22.25;13.95;;;8.60;99.90;;;;;;4969023;28;20489;-63
2022/11/12 10:49:23;;;;;;;19.70;12.73;;;8.60;99.90;;;;;;4982488;28;20040;-63
2022/11/12 10:51:57;;;;;;;21.48;13.40;;;8.60;99.90;;;;;;4965817;28;20430;-63
2022/11/12 10:54:25;;;;;;;19.95;13.50;;;8.70;99.90;;;;;;4978455;28;20035;-63
2022/11/12 10:56:51;;;;;;;19.13;12.82;;;8.80;99.90;;;;;;4981901;28;20045;-63
2022/11/12 10:59:22;;;;;;;22.80;12.60;;;8.80;99.90;;;;;;4972172;28;20441;-63
2022/11/12 11:01:57;;;;;;;21.17;12.80;;;8.90;99.90;;;;;;4986929;28;20045;-63
2022/11/12 11:04:35;;;;;;;18.10;12.45;;;9.00;99.90;;;;;;4979667;28;20074;-63
2022/11/12 11:07:23;;;;;;;20.20;13.27;;;9.00;99.90;;;;;;4973724;28;20035;-63
2022/11/12 11:09:57;;;;;;;16.90;11.52;;;9.20;99.90;;;;;;4980967;28;20434;-63
2022/11/12 11:12:32;;;;;;;18.00;12.70;;;9.20;99.90;;;;;;4973454;28;20133;-63
2022/11/12 11:15:13;;;;;;;19.88;12.15;;;9.40;99.90;;;;;;4973467;28;20122;-63
2022/11/12 11:17:38;;;;;;;21.00;12.25;;;9.50;99.90;;;;;;4986132;28;20085;-63
2022/11/12 11:20:13;;;;;;;16.67;10.82;;;9.60;99.90;;;;;;4977245;28;20031;-63
2022/11/12 11:22:44;;;;;;;18.30;11.23;;;9.70;99.90;;;;;;4974660;28;20039;-63
2022/11/12 11:25:27;;;;;;;16.13;11.57;;;9.80;99.90;;;;;;4973535;28;20069;-63
2022/11/12 11:28:19;;;;;;;17.98;11.68;;;9.90;99.90;;;;;;4974897;28;20090;-63
2022/11/12 11:31:05;;;;;;;16.50;11.15;;;10.10;99.90;;;;;;4970083;28;20517;-63
2022/11/12 11:34:13;;;;;;;15.65;11.73;;;10.20;99.90;;;;;;4980751;28;20049;-63
2022/11/12 11:36:47;;;;;;;16.25;10.95;;;10.30;99.90;;;;;;4961670;28;20496;-63
2022/11/12 11:39:21;;;;;;;17.15;10.50;;;10.40;99.90;;;;;;4973764;28;20114;-63
2022/11/12 11:41:46;;;;;;;17.15;11.23;;;10.60;99.90;;;;;;4974655;28;20062;-63
2022/11/12 11:44:33;;;;;;;14.05;10.35;;;10.70;99.90;;;;;;4977992;28;20082;-63
2022/11/12 11:47:30;;;;;;;15.80;10.20;;;10.80;99.90;;;;;;4982173;28;20057;-64
2022/11/12 11:50:14;;;;;;;15.35;10.27;;;11.00;99.90;;;;;;4967466;28;20043;-63
2022/11/12 11:53:18;;;;;;;15.73;9.85;;;11.00;99.90;;;;;;4973979;28;20494;-63
2022/11/12 11:56:13;;;;;;;15.20;10.15;;;11.10;99.90;;;;;;4912035;29;20514;-63
2022/11/12 11:58:54;;;;;;;14.25;9.38;;;11.20;99.90;;;;;;4926419;29;20055;-64
2022/11/12 12:01:45;;;;;;;15.20;9.23;;;11.30;99.90;;;;;;4956954;28;20054;-64
2022/11/12 12:04:48;;;;;;;13.23;9.30;;;11.30;99.90;;;;;;4963601;28;20054;-63
2022/11/12 12:07:49;;;;;;;13.93;9.52;;;11.30;99.90;;;;;;4969933;28;20038;-63
2022/11/12 12:10:49;;;;;;;12.30;8.75;;;11.40;99.90;;;;;;4968853;28;20043;-64
2022/11/12 12:13:18;;;;;;;15.48;9.55;;;11.40;99.90;;;;;;4984582;28;20042;-64
2022/11/12 12:16:18;;;;;;;15.23;9.70;;;11.50;99.90;;;;;;4986782;28;20397;-64
2022/11/12 12:19:11;;;;;;;13.73;9.68;;;11.60;99.90;;;;;;4966783;28;20073;-64
2022/11/12 12:21:40;;;;;;;13.48;9.18;;;11.60;99.90;;;;;;4946564;28;20046;-64
2022/11/12 12:24:06;;;;;;;13.25;9.25;;;11.60;99.90;;;;;;4972528;28;20039;-64
2022/11/12 12:26:52;;;;;;;15.07;9.48;;;11.60;99.90;;;;;;4981527;28;20046;-64
2022/11/12 12:29:29;;;;;;;11.63;9.30;;;11.60;99.90;;;;;;4981507;28;20042;-64
2022/11/12 12:32:16;;;;;;;15.48;10.07;;;11.70;99.90;;;;;;4985428;28;20038;-64
2022/11/12 12:34:47;;;;;;;12.27;9.50;;;11.70;99.90;;;;;;4966793;28;20609;-64
2022/11/12 12:37:31;;;;;;;13.88;10.07;;;11.70;99.90;;;;;;4972086;28;20039;-64
2022/11/12 12:40:14;;;;;;;12.88;9.88;;;11.80;99.90;;;;;;4976326;28;20042;-64
2022/11/12 12:42:49;;;;;;;14.13;10.00;;;11.80;99.90;;;;;;4982666;28;20042;-64
2022/11/12 12:45:43;;;;;;;14.68;9.90;;;11.70;99.90;;;;;;4981470;28;20448;-64
2022/11/12 12:48:21;;;;;;;13.68;9.80;;;11.80;99.90;;;;;;4968374;28;20046;-64
2022/11/12 12:50:48;;;;;;;14.43;9.82;;;11.80;99.90;;;;;;4973257;28;20039;-64
2022/11/12 12:53:16;;;;;;;13.02;9.90;;;11.80;99.90;;;;;;4971665;28;20053;-64
2022/11/12 12:55:43;;;;;;;14.68;10.82;;;11.90;99.90;;;;;;4972092;28;20043;-64
2022/11/12 12:58:28;;;;;;;13.13;9.90;;;11.90;99.90;;;;;;4978827;28;20049;-64
2022/11/12 13:01:19;;;;;;;13.85;9.07;;;12.10;99.90;;;;;;4980426;28;20043;-64
2022/11/12 13:03:49;;;;;;;14.70;9.80;;;12.10;99.90;;;;;;4965286;28;20046;-64
2022/11/12 13:06:24;;;;;;;12.48;9.82;;;12.20;99.90;;;;;;4971400;28;20081;-64
2022/11/12 13:08:57;;;;;;;12.85;9.23;;;12.20;99.90;;;;;;4972346;28;20031;-64
2022/11/12 13:14:34;;;;;;;13.93;9.80;;;12.40;99.90;;;;;;4986690;28;20477;-64
2022/11/12 13:17:07;;;;;;;13.60;9.82;;;12.60;99.90;;;;;;4972640;28;20409;-64
2022/11/12 13:19:35;;;;;;;14.82;9.82;;;12.80;99.90;;;;;;4979084;28;20058;-64
2022/11/12 13:22:16;;;;;;;12.50;9.23;;;12.90;99.90;;;;;;4971125;28;20046;-64
2022/11/12 13:25:07;;;;;;;12.98;9.50;;;13.10;99.90;;;;;;4971622;28;20050;-64
2022/11/12 13:27:38;;;;;;;14.70;10.25;;;13.10;99.90;;;;;;4973364;28;20045;-64
2022/11/12 13:30:13;;;;;;;15.15;10.57;;;13.00;99.90;;;;;;4985306;28;20046;-64